Webcam Rollhalt 06

Webcam Rollhalt 24

 

Flugplatz - Wetter - Augsburg

[Quelle: ADDS]
METAR
EDMA 221320Z 32007KT 280V010 CAVOK 12/02 Q1020 =
EDMA 221100Z 2212/2221 34007KT 9999 SCT025
TAF
EDMA 221100Z 2212/2221 34007KT 9999 SCT025 =
SR / SS: 04:13 / 18:18 UTC (Augsburg 2021-04-22)

Flugplatz - Wetter - Laupheim

[Quelle: ADDS]
METAR
ETHL 221320Z 24005KT 9999 SCT035 BKN230 13/03 Q1020 BLU+BLU+ =
AMD ETHL 221320Z 2214/2223 02010KT 9999 NSW FEW035 SCT240
TAF
AMD ETHL 221320Z 2214/2223 02010KT 9999 NSW FEW035 SCT240 =
SR / SS: 04:18 / 18:22 UTC (Laupheim 2021-04-22)

Flugplatz - Wetter - Memmingen

[Quelle: ADDS]
METAR
EDJA 221320Z 32007G17KT 270V350 9999 BKN037 BKN054 13/04 Q1020 =
EDJA 221100Z 2212/2221 34009KT 9999 FEW020 SCT050 BECMG 2216/2218 02004KT
TAF
EDJA 221100Z 2212/2221 34009KT 9999 FEW020 SCT050 BECMG 2216/2218 02004KT =
SR / SS: 04:17 / 18:18 UTC (Memmingen 2021-04-22)

Flugplatz - Wetter - Neuburg/Donau

[Quelle: ADDS]
METAR
ETSN 221320Z 31011KT 9999 FEW050 BKN260 14/M06 Q1020 BLU+BLU+ =
ETSN 221300Z 2214/2223 33010KT 9999 NSW FEW050 SCT300 BY ETGL
TAF
ETSN 221300Z 2214/2223 33010KT 9999 NSW FEW050 SCT300 BY ETGL =
SR / SS: 04:11 / 18:16 UTC (Neuburg 2021-04-22)

Flugplatz - Wetter - Stuttgart

[Quelle: ADDS]
METAR
EDDS 221320Z 33009KT 300V010 CAVOK 14/00 Q1021 NOSIG =
EDDS 221100Z 2212/2312 34008KT CAVOK TEMPO 2220/2309 VRB03KT BECMG 2309/2312 04006KT
TAF
EDDS 221100Z 2212/2312 34008KT CAVOK TEMPO 2220/2309 VRB03KT BECMG 2309/2312 04006KT =
SR / SS: 04:19 / 18:24 UTC (Stuttgart 2021-04-22)

Flugplatz - Wetter - Niederstetten

[Quelle: ADDS]
METAR
ETHN 221320Z 35006KT 9999 SCT240 12/M03 Q1021 BLU+BLU+ =
ETHN 221000Z 2211/2220 36005KT 9999 NSW FEW030 BKN230
TAF
ETHN 221000Z 2211/2220 36005KT 9999 NSW FEW030 BKN230 =
SR / SS: 04:15 / 18:24 UTC (Niederstetten 2021-04-22)